Time;durP1;ratioP1;P1;durP2;ratioP2;P2;SDS_P1;SDS_P2;PMS_P1;PMS_P2;Temp;Humidity;BMP_temperature;BMP_pressure;BME280_temperature;BME280_humidity;BME280_pressure;Samples;Min_cycle;Max_cycle;Signal;HPM_P1;HPM_P2
2022/06/29 00:00:12;;;;;;;2.95;1.90;;;;;;;16.19;91.12;100814.25;687227;28;1285;-44
2022/06/29 00:00:33;;;;;;;4.40;2.03;;;;;;;16.18;90.70;100820.44;683801;28;1931;-43
2022/06/29 00:00:53;;;;;;;4.27;2.00;;;;;;;16.19;89.76;100818.69;685178;28;872;-43
2022/06/29 00:01:14;;;;;;;3.90;1.95;;;;;;;16.19;90.60;100816.91;683674;28;4309;-45
2022/06/29 00:01:37;;;;;;;3.78;2.08;;;;;;;16.19;92.78;100822.19;684205;28;1140;-46
2022/06/29 00:01:57;;;;;;;3.30;2.10;;;;;;;16.19;90.45;100814.25;685297;28;940;-43
2022/06/29 00:02:18;;;;;;;3.67;2.00;;;;;;;16.19;89.68;100821.31;690225;28;1815;-44
2022/06/29 00:02:43;;;;;;;4.07;2.00;;;;;;;16.17;89.06;100816.94;694654;28;891;-44
2022/06/29 00:03:04;;;;;;;5.03;1.90;;;;;;;16.19;89.23;100821.31;693316;28;1095;-44
2022/06/29 00:03:24;;;;;;;5.03;2.20;;;;;;;16.20;89.90;100823.03;692864;28;1475;-44
2022/06/29 00:03:45;;;;;;;4.70;1.90;;;;;;;16.17;88.83;100818.69;692347;28;1684;-46
2022/06/29 00:04:05;;;;;;;4.78;1.90;;;;;;;16.17;90.82;100816.06;689860;28;4526;-44
2022/06/29 00:04:26;;;;;;;7.30;2.13;;;;;;;16.17;88.73;100818.69;690852;28;845;-44
2022/06/29 00:04:46;;;;;;;7.23;2.10;;;;;;;16.15;88.38;100818.75;689846;28;1509;-45
2022/06/29 00:05:07;;;;;;;4.05;2.10;;;;;;;16.16;88.99;100812.56;690127;28;1588;-43
2022/06/29 00:05:29;;;;;;;3.33;2.00;;;;;;;16.15;90.99;100816.09;689610;28;1051;-45
2022/06/29 00:05:49;;;;;;;4.00;2.00;;;;;;;16.15;92.42;100815.25;690849;28;1167;-44
2022/06/29 00:06:10;;;;;;;3.70;2.03;;;;;;;16.14;90.63;100816.16;689641;28;1040;-44
2022/06/29 00:06:30;;;;;;;4.60;2.00;;;;;;;16.13;89.32;100814.41;690033;28;1115;-44
2022/06/29 00:06:50;;;;;;;4.33;2.00;;;;;;;16.10;88.85;100815.38;690054;28;1165;-45
2022/06/29 00:07:11;;;;;;;4.10;2.00;;;;;;;16.11;88.55;100814.44;690285;28;4451;-44
2022/06/29 00:07:31;;;;;;;3.40;1.90;;;;;;;16.10;88.72;100814.50;690452;28;1911;-44
2022/06/29 00:07:53;;;;;;;4.10;2.20;;;;;;;16.10;92.14;100817.13;690170;28;1075;-43
2022/06/29 00:08:17;;;;;;;7.68;2.38;;;;;;;16.08;92.78;100819.81;692637;28;1075;-44
2022/06/29 00:08:37;;;;;;;7.72;2.20;;;;;;;16.06;90.96;100811.09;693034;28;1215;-45
2022/06/29 00:08:57;;;;;;;3.47;1.90;;;;;;;16.07;90.91;100811.94;690050;28;1299;-44
2022/06/29 00:09:17;;;;;;;3.53;1.90;;;;;;;16.06;90.78;100812.84;687408;28;1075;-44
2022/06/29 00:09:38;;;;;;;3.73;2.00;;;;;;;16.05;90.90;100813.72;686834;28;985;-45
2022/06/29 00:09:59;;;;;;;3.60;1.80;;;;;;;16.04;89.81;100819.94;687321;28;1180;-44
2022/06/29 00:10:20;;;;;;;3.50;1.90;;;;;;;16.02;89.36;100809.44;686412;28;4939;-44
2022/06/29 00:10:40;;;;;;;3.92;2.00;;;;;;;16.02;89.05;100814.69;687927;28;1104;-43
2022/06/29 00:11:01;;;;;;;4.13;1.93;;;;;;;16.02;89.66;100811.19;689555;28;1351;-43
2022/06/29 00:11:21;;;;;;;3.10;1.90;;;;;;;15.99;91.49;100818.28;690195;28;1319;-44
2022/06/29 00:11:41;;;;;;;4.18;2.10;;;;;;;16.00;90.91;100814.75;690731;28;1217;-44
2022/06/29 00:12:02;;;;;;;3.63;1.93;;;;;;;16.00;90.35;100817.38;690846;28;1063;-45
2022/06/29 00:12:22;;;;;;;3.97;1.83;;;;;;;15.99;89.62;100810.38;689453;28;1362;-43
2022/06/29 00:12:44;;;;;;;4.20;1.90;;;;;;;15.99;89.49;100815.63;691000;28;1424;-45
2022/06/29 00:13:05;;;;;;;3.80;2.00;;;;;;;15.98;89.76;100813.91;688944;28;4976;-45
2022/06/29 00:13:25;;;;;;;3.70;2.00;;;;;;;15.99;89.34;100822.66;690242;28;1422;-45
2022/06/29 00:13:45;;;;;;;3.13;1.80;;;;;;;15.98;89.18;100819.16;690460;28;1026;-43
2022/06/29 00:14:06;;;;;;;4.47;2.10;;;;;;;15.94;89.19;100812.25;690189;28;1079;-45
2022/06/29 00:14:26;;;;;;;4.22;1.95;;;;;;;15.94;89.54;100816.66;690238;28;918;-44
2022/06/29 00:14:46;;;;;;;3.20;1.90;;;;;;;15.92;89.29;100811.44;690342;28;1048;-45
2022/06/29 00:15:07;;;;;;;3.42;2.00;;;;;;;15.92;89.08;100819.34;690212;28;1006;-47
2022/06/29 00:15:28;;;;;;;4.10;1.92;;;;;;;15.92;89.04;100808.78;686959;28;1138;-44
2022/06/29 00:15:48;;;;;;;3.13;1.90;;;;;;;15.93;90.67;100818.41;687713;28;1104;-45
2022/06/29 00:16:09;;;;;;;3.67;1.90;;;;;;;15.93;89.58;100820.19;685834;28;4426;-44
2022/06/29 00:16:29;;;;;;;3.92;2.00;;;;;;;15.96;90.04;100820.13;687121;28;3712;-44
2022/06/29 00:16:50;;;;;;;2.93;1.93;;;;;;;15.96;89.56;100814.84;687588;28;1087;-44
2022/06/29 00:17:13;;;;;;;3.72;2.13;;;;;;;15.95;93.34;100816.63;687742;28;1237;-44
2022/06/29 00:17:34;;;;;;;4.30;2.25;;;;;;;15.95;90.89;100818.38;691643;28;1328;-43
2022/06/29 00:17:54;;;;;;;3.95;2.00;;;;;;;15.94;92.22;100812.25;691813;28;1206;-44
2022/06/29 00:18:15;;;;;;;4.20;2.10;;;;;;;15.93;90.49;100810.50;689853;28;1113;-46
2022/06/29 00:18:37;;;;;;;4.30;2.17;;;;;;;15.93;95.32;100815.78;690653;28;1765;-44
2022/06/29 00:18:58;;;;;;;3.90;2.20;;;;;;;15.94;94.20;100820.16;691222;28;1011;-45
2022/06/29 00:19:18;;;;;;;3.75;2.17;;;;;;;15.93;92.23;100815.78;690463;28;4288;-45
2022/06/29 00:19:40;;;;;;;3.30;2.10;;;;;;;15.93;91.38;100809.66;690864;28;1102;-45
2022/06/29 00:20:02;;;;;;;4.10;2.10;;;;;;;15.92;90.39;100813.19;689956;28;1122;-46
2022/06/29 00:20:23;;;;;;;3.20;1.88;;;;;;;15.90;92.57;100810.59;689910;28;950;-44
2022/06/29 00:20:44;;;;;;;3.25;2.10;;;;;;;15.90;91.04;100809.72;690633;28;976;-45
2022/06/29 00:21:04;;;;;;;3.80;2.00;;;;;;;15.90;90.86;100813.22;690146;28;1361;-46
2022/06/29 00:21:24;;;;;;;3.97;2.10;;;;;;;15.89;93.63;100808.84;689848;28;1083;-46
2022/06/29 00:21:45;;;;;;;5.30;2.20;;;;;;;15.87;94.58;100810.66;690308;28;1118;-44
2022/06/29 00:22:07;;;;;;;4.47;2.40;;;;;;;15.85;95.05;100809.81;688617;28;4675;-44
2022/06/29 00:22:28;;;;;;;5.43;2.22;;;;;;;15.88;92.82;100811.53;690146;28;1095;-45
2022/06/29 00:22:48;;;;;;;4.73;2.10;;;;;;;15.85;92.30;100806.34;689872;28;1154;-46
2022/06/29 00:23:10;;;;;;;3.83;2.10;;;;;;;15.86;92.02;100806.28;690040;28;1079;-45
2022/06/29 00:23:30;;;;;;;3.78;2.10;;;;;;;15.88;92.33;100807.13;690604;28;1056;-45
2022/06/29 00:23:51;;;;;;;3.83;2.10;;;;;;;15.85;92.99;100809.81;693178;28;1785;-45
2022/06/29 00:24:11;;;;;;;4.10;2.10;;;;;;;15.84;92.33;100810.75;690625;28;1122;-45
2022/06/29 00:24:32;;;;;;;4.90;2.40;;;;;;;15.83;92.20;100804.59;692906;28;856;-44
2022/06/29 00:24:53;;;;;;;4.38;2.13;;;;;;;15.83;92.14;100809.88;688091;28;1258;-45
2022/06/29 00:25:14;;;;;;;4.25;2.13;;;;;;;15.83;94.54;100809.00;687059;28;5293;-45
2022/06/29 00:25:35;;;;;;;3.47;2.15;;;;;;;15.81;91.83;100811.69;686917;28;1203;-44
2022/06/29 00:25:55;;;;;;;3.90;2.00;;;;;;;15.83;91.24;100801.09;685002;28;1497;-45
2022/06/29 00:26:17;;;;;;;3.78;2.10;;;;;;;15.85;91.70;100807.19;685512;28;1441;-46
2022/06/29 00:26:40;;;;;;;3.88;2.00;;;;;;;15.82;91.12;100802.88;689375;28;1219;-45
2022/06/29 00:27:02;;;;;;;4.50;2.00;;;;;;;15.82;90.97;100804.63;693059;28;1106;-44
2022/06/29 00:27:23;;;;;;;3.95;2.08;;;;;;;15.83;90.82;100806.38;692398;28;1736;-45
2022/06/29 00:27:43;;;;;;;3.90;2.17;;;;;;;15.81;90.94;100798.50;693259;28;1969;-44
2022/06/29 00:28:04;;;;;;;3.80;1.92;;;;;;;15.82;90.51;100802.00;689424;28;4765;-45
2022/06/29 00:28:25;;;;;;;4.10;2.00;;;;;;;15.82;90.93;100802.00;690645;28;1072;-46
2022/06/29 00:28:45;;;;;;;4.13;1.90;;;;;;;15.82;90.48;100802.88;689872;28;1368;-48
2022/06/29 00:29:06;;;;;;;3.83;2.00;;;;;;;15.81;90.35;100800.25;690148;28;1264;-46
2022/06/29 00:29:26;;;;;;;4.13;2.20;;;;;;;15.81;91.82;100801.16;690591;28;1207;-47
2022/06/29 00:29:48;;;;;;;4.30;2.20;;;;;;;15.79;93.07;100796.78;690941;28;892;-45
2022/06/29 00:30:10;;;;;;;3.50;2.00;;;;;;;15.80;90.85;100803.81;690403;28;1090;-45
2022/06/29 00:30:30;;;;;;;3.30;1.90;;;;;;;15.79;90.36;100796.78;690465;28;1212;-45
2022/06/29 00:30:51;;;;;;;3.50;2.00;;;;;;;15.78;91.47;100803.81;690028;28;1098;-44
2022/06/29 00:31:11;;;;;;;4.40;2.00;;;;;;;15.76;90.85;100802.13;689819;28;4373;-44
2022/06/29 00:31:31;;;;;;;3.67;1.90;;;;;;;15.75;91.00;100805.66;689346;28;1067;-44
2022/06/29 00:31:52;;;;;;;4.30;2.00;;;;;;;15.75;91.32;100803.88;689819;28;1048;-44
2022/06/29 00:32:13;;;;;;;3.80;2.03;;;;;;;15.76;91.00;100804.75;690222;28;1544;-49
2022/06/29 00:32:33;;;;;;;4.20;2.30;;;;;;;15.75;90.62;100810.94;690491;28;1032;-44
2022/06/29 00:32:54;;;;;;;4.00;2.13;;;;;;;15.73;91.63;100803.06;690319;28;1075;-45
2022/06/29 00:33:14;;;;;;;4.22;2.15;;;;;;;15.75;91.62;100805.66;687879;28;1273;-46
2022/06/29 00:33:34;;;;;;;4.43;2.30;;;;;;;15.73;92.70;100808.34;689622;28;901;-45
2022/06/29 00:33:55;;;;;;;3.80;2.20;;;;;;;15.75;91.90;100805.66;687458;28;1230;-46
2022/06/29 00:34:15;;;;;;;3.10;2.10;;;;;;;15.75;92.52;100817.06;689625;28;4413;-45
2022/06/29 00:34:35;;;;;;;3.53;2.10;;;;;;;15.77;91.91;100803.84;690432;28;1079;-44
2022/06/29 00:34:56;;;;;;;4.07;2.10;;;;;;;15.75;91.15;100809.16;689533;28;1261;-45
2022/06/29 00:35:16;;;;;;;4.37;2.20;;;;;;;15.75;93.35;100800.38;689612;28;1296;-45
2022/06/29 00:35:37;;;;;;;4.70;2.30;;;;;;;15.73;96.32;100807.44;690016;28;1251;-46
2022/06/29 00:35:57;;;;;;;4.72;2.78;;;;;;;15.72;93.57;100805.75;689652;28;1277;-46
2022/06/29 00:36:17;;;;;;;3.83;2.20;;;;;;;15.73;92.34;100802.19;689652;28;1277;-44
2022/06/29 00:36:38;;;;;;;3.95;2.10;;;;;;;15.73;91.58;100807.44;690305;28;1245;-45
2022/06/29 00:36:59;;;;;;;3.43;2.00;;;;;;;15.68;91.78;100804.06;690056;28;1539;-45
2022/06/29 00:37:19;;;;;;;4.07;2.10;;;;;;;15.65;91.75;100800.59;689263;28;4477;-45
2022/06/29 00:37:40;;;;;;;4.97;2.15;;;;;;;15.64;91.88;100803.28;689846;28;1364;-47
2022/06/29 00:38:00;;;;;;;4.30;2.03;;;;;;;15.64;92.29;100800.63;689741;28;1389;-46
2022/06/29 00:38:20;;;;;;;4.05;2.20;;;;;;;15.66;94.42;100804.13;689592;28;1151;-44
2022/06/29 00:38:41;;;;;;;4.00;2.10;;;;;;;15.65;92.93;100797.09;690208;28;1111;-47
2022/06/29 00:39:01;;;;;;;4.30;2.20;;;;;;;15.65;92.85;100797.97;689662;28;5073;-44
2022/06/29 00:39:22;;;;;;;4.53;2.15;;;;;;;15.63;92.69;100797.16;690149;28;1174;-45
2022/06/29 00:39:43;;;;;;;3.90;2.10;;;;;;;15.62;91.75;100792.78;687910;28;1059;-47
2022/06/29 00:40:04;;;;;;;4.10;2.20;;;;;;;15.62;91.92;100794.56;689535;28;1305;-44
2022/06/29 00:40:24;;;;;;;4.05;2.15;;;;;;;15.66;91.89;100802.34;688087;28;4512;-45
2022/06/29 00:40:44;;;;;;;4.50;2.20;;;;;;;15.66;93.48;100801.47;691317;28;1311;-44
2022/06/29 00:41:05;;;;;;;5.63;2.27;;;;;;;15.69;95.30;100797.88;690125;28;1055;-45
2022/06/29 00:41:25;;;;;;;3.65;2.20;;;;;;;15.65;96.56;100795.31;690739;28;1130;-44
2022/06/29 00:41:46;;;;;;;3.97;2.00;;;;;;;15.64;97.25;100798.84;691118;28;1095;-44
2022/06/29 00:42:06;;;;;;;4.85;2.05;;;;;;;15.62;96.42;100798.03;689657;28;1035;-45
2022/06/29 00:42:27;;;;;;;5.23;2.40;;;;;;;15.65;93.59;100794.47;690219;28;1078;-45
2022/06/29 00:42:47;;;;;;;4.13;2.27;;;;;;;15.65;93.56;100792.69;687724;28;1083;-45
2022/06/29 00:43:08;;;;;;;3.33;1.92;;;;;;;15.62;92.00;100795.41;686300;28;4371;-45
2022/06/29 00:43:28;;;;;;;4.40;2.03;;;;;;;15.65;91.87;100795.31;687613;28;1170;-47
2022/06/29 00:43:49;;;;;;;4.53;2.08;;;;;;;15.68;90.81;100793.53;686722;28;1107;-46
2022/06/29 00:44:17;;;;;;;3.97;1.90;;;;;;;15.69;91.31;100795.25;687397;28;1088;-45
2022/06/29 00:44:38;;;;;;;3.55;2.10;;;;;;;15.71;91.49;100791.69;688292;28;1290;-47
2022/06/29 00:44:59;;;;;;;4.40;2.22;;;;;;;15.70;93.76;100797.88;689977;28;1119;-46
2022/06/29 00:45:20;;;;;;;4.53;2.50;;;;;;;15.70;94.64;100789.09;687025;28;1176;-45
2022/06/29 00:45:40;;;;;;;3.93;2.10;;;;;;;15.69;95.58;100788.22;687562;28;1099;-45
2022/06/29 00:46:00;;;;;;;3.50;2.20;;;;;;;15.68;95.16;100796.16;687779;28;1172;-46
2022/06/29 00:46:21;;;;;;;4.73;2.20;;;;;;;15.69;93.40;100796.13;686275;28;4552;-45
2022/06/29 00:46:47;;;;;;;4.03;2.13;;;;;;;15.69;91.98;100790.88;690045;28;1119;-44
2022/06/29 00:47:07;;;;;;;3.75;2.10;;;;;;;15.69;93.06;100795.25;690047;28;1103;-46
2022/06/29 00:47:28;;;;;;;3.47;2.07;;;;;;;15.68;92.95;100796.16;689920;28;1938;-46
2022/06/29 00:47:48;;;;;;;3.57;2.03;;;;;;;15.66;96.17;100790.94;690532;28;1079;-46
2022/06/29 00:48:09;;;;;;;5.13;2.20;;;;;;;15.67;94.26;100795.28;689582;28;1110;-45
2022/06/29 00:48:29;;;;;;;4.87;2.20;;;;;;;15.66;93.51;100791.78;690281;28;1063;-45
2022/06/29 00:48:49;;;;;;;3.75;2.00;;;;;;;15.68;94.71;100798.81;690297;28;1119;-46
2022/06/29 00:49:10;;;;;;;4.90;2.17;;;;;;;15.66;96.86;100796.22;688575;28;4391;-47
2022/06/29 00:49:31;;;;;;;4.40;2.00;;;;;;;15.66;95.41;100791.78;689803;28;1130;-48
2022/06/29 00:49:52;;;;;;;4.22;2.20;;;;;;;15.66;94.58;100797.06;690237;28;1123;-46
2022/06/29 00:50:13;;;;;;;3.80;2.07;;;;;;;15.66;94.07;100802.34;690515;28;1149;-45
2022/06/29 00:50:37;;;;;;;4.32;2.17;;;;;;;15.65;96.60;100795.31;686534;28;1204;-45
2022/06/29 00:51:02;;;;;;;4.20;2.17;;;;;;;15.64;95.60;100803.28;689600;28;1317;-44
2022/06/29 00:51:24;;;;;;;4.22;2.08;;;;;;;15.62;94.53;100790.13;689536;28;1235;-45
2022/06/29 00:51:50;;;;;;;4.43;2.00;;;;;;;15.63;93.89;100791.88;689924;28;1228;-45
2022/06/29 00:52:13;;;;;;;4.03;2.00;;;;;;;15.64;93.86;100796.22;688425;28;4449;-44
2022/06/29 00:52:37;;;;;;;4.57;2.25;;;;;;;15.63;93.97;100796.25;689762;28;1447;-45
2022/06/29 00:53:03;;;;;;;3.95;2.33;;;;;;;15.60;97.64;100797.22;690496;28;1217;-45
2022/06/29 00:53:26;;;;;;;5.53;2.10;;;;;;;15.59;98.35;100794.59;689688;28;1596;-46
2022/06/29 00:53:50;;;;;;;5.18;2.30;;;;;;;15.59;96.99;100795.50;689351;28;1464;-45
2022/06/29 00:54:14;;;;;;;3.10;2.10;;;;;;;15.59;97.79;100795.50;689311;28;1079;-47
2022/06/29 00:54:39;;;;;;;4.30;2.20;;;;;;;15.62;95.89;100795.41;686713;28;1459;-45
2022/06/29 00:55:06;;;;;;;3.47;2.10;;;;;;;15.62;94.71;100798.03;686732;28;1791;-45
2022/06/29 00:55:29;;;;;;;3.38;2.00;;;;;;;15.59;98.95;100795.50;690261;28;4702;-45
2022/06/29 00:55:51;;;;;;;5.55;2.10;;;;;;;15.59;99.49;100799.88;689745;28;1158;-45
2022/06/29 00:56:14;;;;;;;5.95;2.33;;;;;;;15.58;98.12;100788.47;687805;28;1311;-45
2022/06/29 00:56:35;;;;;;;5.53;2.13;;;;;;;15.60;97.23;100801.59;690765;28;1099;-45
2022/06/29 00:56:58;;;;;;;4.07;2.30;;;;;;;15.58;95.84;100798.16;689598;28;1226;-44
2022/06/29 00:57:21;;;;;;;3.47;2.08;;;;;;;15.58;96.08;100792.88;689841;28;1002;-45
2022/06/29 00:57:44;;;;;;;4.25;2.10;;;;;;;15.55;94.97;100796.47;690430;28;835;-46
2022/06/29 00:58:07;;;;;;;3.85;2.15;;;;;;;15.53;94.76;100797.41;688551;28;4433;-47
2022/06/29 00:58:28;;;;;;;4.30;2.20;;;;;;;15.50;95.35;100793.91;690392;28;1223;-45
2022/06/29 00:58:54;;;;;;;3.85;2.10;;;;;;;15.49;96.09;100796.59;690717;28;1206;-46
2022/06/29 00:59:20;;;;;;;3.17;2.00;;;;;;;15.48;96.03;100793.09;690169;28;994;-45
2022/06/29 00:59:45;;;;;;;4.60;2.20;;;;;;;15.50;95.99;100795.69;690099;28;2172;-46
2022/06/29 01:00:06;;;;;;;3.92;2.10;;;;;;;15.50;95.28;100795.69;691935;28;1300;-44
2022/06/29 01:00:27;;;;;;;5.03;2.17;;;;;;;15.50;95.14;100791.28;691548;28;1368;-45
2022/06/29 01:00:48;;;;;;;5.90;2.40;;;;;;;15.51;94.91;100792.16;691003;28;1142;-45
2022/06/29 01:01:09;;;;;;;4.22;2.22;;;;;;;15.47;95.37;100791.34;690461;28;4553;-45
2022/06/29 01:01:31;;;;;;;3.53;2.00;;;;;;;15.47;95.33;100793.13;689587;28;1170;-45
2022/06/29 01:01:51;;;;;;;3.42;2.10;;;;;;;15.46;95.95;100796.66;691602;28;1265;-45
2022/06/29 01:02:16;;;;;;;3.93;2.10;;;;;;;15.45;95.76;100792.28;690026;28;937;-44
2022/06/29 01:02:37;;;;;;;4.18;2.20;;;;;;;15.46;96.43;100791.41;690380;28;1063;-46
2022/06/29 01:03:02;;;;;;;3.47;2.00;;;;;;;15.45;95.71;100795.81;690009;28;1039;-45
2022/06/29 01:03:22;;;;;;;4.32;2.20;;;;;;;15.43;99.79;100794.97;690508;28;1843;-45
2022/06/29 01:03:43;;;;;;;5.40;2.50;;;;;;;15.43;99.14;100791.47;691339;28;1313;-44
2022/06/29 01:04:03;;;;;;;6.20;2.37;;;;;;;15.42;98.05;100793.22;690965;28;1289;-46
2022/06/29 01:04:24;;;;;;;4.68;2.30;;;;;;;15.44;97.24;100795.84;690086;28;4389;-45
2022/06/29 01:04:45;;;;;;;4.00;2.20;;;;;;;15.44;96.93;100790.56;690271;28;1083;-45
2022/06/29 01:05:06;;;;;;;4.00;2.00;;;;;;;15.44;97.09;100791.44;690685;28;1144;-46
2022/06/29 01:05:28;;;;;;;4.18;2.10;;;;;;;15.44;96.44;100793.22;691199;28;970;-45
2022/06/29 01:05:48;;;;;;;4.75;2.33;;;;;;;15.41;96.60;100791.50;690534;28;999;-46
2022/06/29 01:06:09;;;;;;;4.57;2.40;;;;;;;15.38;95.82;100790.69;690788;28;1037;-44
2022/06/29 01:06:29;;;;;;;4.50;2.30;;;;;;;15.38;95.81;100791.59;693300;28;959;-45
2022/06/29 01:06:50;;;;;;;4.60;2.80;;;;;;;15.39;96.06;100795.06;693464;28;1221;-46
2022/06/29 01:07:18;;;;;;;4.73;2.67;;;;;;;15.40;96.17;100792.41;692743;28;4586;-45
2022/06/29 01:07:39;;;;;;;4.10;2.33;;;;;;;15.42;96.97;100797.63;690609;28;1963;-44
2022/06/29 01:07:59;;;;;;;3.90;2.20;;;;;;;15.41;97.46;100798.53;690298;28;965;-45
2022/06/29 01:08:19;;;;;;;3.70;2.13;;;;;;;15.41;96.58;100788.00;690834;28;935;-47
2022/06/29 01:08:40;;;;;;;4.30;2.27;;;;;;;15.42;96.54;100792.38;690869;28;1911;-44
2022/06/29 01:09:02;;;;;;;4.25;2.20;;;;;;;15.43;95.56;100797.59;691116;28;902;-45
2022/06/29 01:09:24;;;;;;;4.10;2.10;;;;;;;15.44;97.32;100795.84;689746;28;1198;-45
2022/06/29 01:09:44;;;;;;;4.50;2.10;;;;;;;15.42;99.37;100792.38;692679;28;1134;-45
2022/06/29 01:10:05;;;;;;;5.07;2.20;;;;;;;15.40;100.00;100786.28;688762;28;4395;-44
2022/06/29 01:10:26;;;;;;;4.17;2.43;;;;;;;15.41;98.67;100788.00;689079;28;929;-44
2022/06/29 01:10:46;;;;;;;5.65;2.40;;;;;;;15.42;98.07;100798.50;687988;28;957;-44
2022/06/29 01:11:06;;;;;;;5.37;2.30;;;;;;;15.42;98.52;100784.47;687191;28;1087;-44
2022/06/29 01:11:27;;;;;;;4.20;2.25;;;;;;;15.40;96.77;100792.41;686654;28;1127;-45
2022/06/29 01:11:49;;;;;;;4.70;2.27;;;;;;;15.40;95.42;100788.91;687219;28;991;-46
2022/06/29 01:12:11;;;;;;;4.13;2.40;;;;;;;15.40;94.69;100794.19;689454;28;1168;-45
2022/06/29 01:12:31;;;;;;;4.45;2.30;;;;;;;15.38;95.21;100794.22;690661;28;1394;-44
2022/06/29 01:12:52;;;;;;;5.50;2.20;;;;;;;15.37;95.49;100800.38;689885;28;3860;-44
2022/06/29 01:13:12;;;;;;;4.57;2.20;;;;;;;15.36;95.72;100789.88;689366;28;5363;-44
2022/06/29 01:13:33;;;;;;;5.90;2.40;;;;;;;15.35;98.15;100789.00;690907;28;1134;-46
2022/06/29 01:13:53;;;;;;;5.53;2.47;;;;;;;15.34;97.49;100795.19;693702;28;1538;-45
2022/06/29 01:14:15;;;;;;;5.67;2.23;;;;;;;15.35;99.82;100793.41;692704;28;958;-45
2022/06/29 01:14:35;;;;;;;4.97;2.17;;;;;;;15.36;98.41;100790.75;694140;28;1042;-45
2022/06/29 01:14:56;;;;;;;3.45;2.20;;;;;;;15.38;98.67;100791.59;693537;28;1020;-45
2022/06/29 01:15:16;;;;;;;3.23;2.10;;;;;;;15.37;97.47;100789.84;692157;28;1264;-45
2022/06/29 01:15:36;;;;;;;3.90;2.30;;;;;;;15.35;100.00;100790.78;693691;28;933;-44
2022/06/29 01:15:57;;;;;;;4.70;2.50;;;;;;;15.34;97.15;100789.91;693398;28;1082;-45
2022/06/29 01:16:17;;;;;;;4.40;2.42;;;;;;;15.34;95.52;100792.56;690284;28;5485;-46
2022/06/29 01:16:38;;;;;;;3.60;2.30;;;;;;;15.33;95.11;100786.41;691313;28;1236;-45
2022/06/29 01:16:58;;;;;;;4.15;2.22;;;;;;;15.32;95.97;100789.06;691233;28;1051;-44
2022/06/29 01:17:21;;;;;;;3.90;2.20;;;;;;;15.26;95.67;100791.84;690830;28;1007;-45
2022/06/29 01:17:41;;;;;;;4.28;2.20;;;;;;;15.27;96.00;100789.19;690869;28;908;-45
2022/06/29 01:18:02;;;;;;;4.03;2.30;;;;;;;15.27;97.71;100783.91;690422;28;1268;-44
2022/06/29 01:18:23;;;;;;;3.50;2.20;;;;;;;15.27;97.33;100794.44;690747;28;1016;-45
2022/06/29 01:18:43;;;;;;;4.15;2.25;;;;;;;15.29;96.87;100787.38;691590;28;1372;-44
2022/06/29 01:19:03;;;;;;;3.80;2.10;;;;;;;15.30;96.52;100790.88;689524;28;4279;-44
2022/06/29 01:19:24;;;;;;;3.25;2.17;;;;;;;15.28;96.49;100790.03;690861;28;1134;-45
2022/06/29 01:19:44;;;;;;;4.33;2.30;;;;;;;15.30;95.96;100785.63;690445;28;1111;-44
2022/06/29 01:20:05;;;;;;;4.43;2.33;;;;;;;15.30;95.18;100789.13;691284;28;996;-44
2022/06/29 01:20:26;;;;;;;4.78;2.22;;;;;;;15.30;96.58;100781.22;691159;28;1745;-44
2022/06/29 01:20:46;;;;;;;3.63;2.10;;;;;;;15.29;95.41;100792.63;691496;28;1111;-45
2022/06/29 01:21:10;;;;;;;4.05;2.20;;;;;;;15.31;94.54;100784.69;690408;28;1074;-45
2022/06/29 01:21:35;;;;;;;5.10;2.40;;;;;;;15.31;94.19;100782.06;691302;28;1376;-45
2022/06/29 01:21:59;;;;;;;5.13;2.30;;;;;;;15.31;93.87;100788.22;690203;28;1284;-45
2022/06/29 01:22:26;;;;;;;4.70;2.33;;;;;;;15.32;97.48;100781.16;690180;28;4293;-45
2022/06/29 01:22:46;;;;;;;4.07;2.40;;;;;;;15.34;98.39;100776.75;691025;28;1078;-44
2022/06/29 01:23:06;;;;;;;4.15;2.20;;;;;;;15.38;98.41;100780.16;691065;28;1167;-44
2022/06/29 01:23:27;;;;;;;3.47;2.07;;;;;;;15.39;98.08;100779.28;690467;28;1059;-44
2022/06/29 01:23:47;;;;;;;3.90;2.20;;;;;;;15.36;99.12;100782.84;691049;28;1041;-44
2022/06/29 01:24:08;;;;;;;4.23;2.30;;;;;;;15.33;99.34;100783.75;690870;28;998;-44
2022/06/29 01:24:28;;;;;;;5.03;2.40;;;;;;;15.35;97.71;100777.59;691095;28;909;-46
2022/06/29 01:24:49;;;;;;;4.87;2.30;;;;;;;15.35;97.83;100774.97;691332;28;1478;-45
2022/06/29 01:25:10;;;;;;;5.72;2.30;;;;;;;15.32;95.50;100781.16;690027;28;4483;-45
2022/06/29 01:25:30;;;;;;;3.70;2.10;;;;;;;15.29;95.82;100776.84;690333;28;1319;-44
2022/06/29 01:25:51;;;;;;;4.53;2.10;;;;;;;15.28;95.65;100776.88;692296;28;1122;-44
2022/06/29 01:26:13;;;;;;;4.15;2.25;;;;;;;15.28;95.56;100784.78;693486;28;1188;-45
2022/06/29 01:26:33;;;;;;;4.22;2.25;;;;;;;15.29;96.44;100776.84;694095;28;1426;-44
2022/06/29 01:26:54;;;;;;;4.00;2.30;;;;;;;15.28;96.28;100777.72;693557;28;1059;-44
2022/06/29 01:27:15;;;;;;;5.10;2.65;;;;;;;15.28;97.78;100780.38;692100;28;1177;-45
2022/06/29 01:27:36;;;;;;;4.93;2.40;;;;;;;15.28;97.92;100790.03;692746;28;1911;-46
2022/06/29 01:27:58;;;;;;;5.13;2.40;;;;;;;15.25;97.96;100777.81;690698;28;1023;-44
2022/06/29 01:28:19;;;;;;;3.83;2.30;;;;;;;15.26;97.78;100783.97;690584;28;4300;-44
2022/06/29 01:28:46;;;;;;;3.95;2.40;;;;;;;15.25;98.06;100780.44;690582;28;1114;-44
2022/06/29 01:29:09;;;;;;;5.78;2.47;;;;;;;15.24;97.86;100781.34;691123;28;944;-44
2022/06/29 01:29:32;;;;;;;5.67;2.30;;;;;;;15.21;97.14;100778.78;690839;28;961;-44
2022/06/29 01:29:53;;;;;;;4.05;2.20;;;;;;;15.23;97.80;100784.88;691017;28;1020;-46
2022/06/29 01:30:14;;;;;;;5.03;2.20;;;;;;;15.22;98.44;100785.78;690805;28;983;-45
2022/06/29 01:30:34;;;;;;;5.23;2.40;;;;;;;15.24;97.34;100783.97;689285;28;1107;-45
2022/06/29 01:30:54;;;;;;;4.03;2.25;;;;;;;15.26;96.59;100776.91;691072;28;1115;-45
2022/06/29 01:31:19;;;;;;;4.30;2.30;;;;;;;15.27;96.97;100786.56;689972;28;4505;-48
2022/06/29 01:31:39;;;;;;;3.78;2.20;;;;;;;15.25;96.17;100790.13;690395;28;1035;-45
2022/06/29 01:32:00;;;;;;;4.35;2.20;;;;;;;15.24;96.68;100777.84;691251;28;1253;-46
2022/06/29 01:32:21;;;;;;;4.20;2.27;;;;;;;15.23;98.28;100782.25;690130;28;1201;-46
2022/06/29 01:32:42;;;;;;;3.95;2.33;;;;;;;15.21;98.93;100781.41;690637;28;1285;-48
2022/06/29 01:33:03;;;;;;;3.47;2.25;;;;;;;15.21;98.21;100777.91;690539;28;1238;-45
2022/06/29 01:33:23;;;;;;;4.68;2.50;;;;;;;15.21;97.94;100783.19;691142;28;1257;-45
2022/06/29 01:33:46;;;;;;;4.17;2.40;;;;;;;15.19;99.57;100780.59;691882;28;1261;-46
2022/06/29 01:34:10;;;;;;;5.00;2.38;;;;;;;15.16;100.00;100783.31;690292;28;4509;-45
2022/06/29 01:34:30;;;;;;;4.00;2.40;;;;;;;15.16;98.81;100780.66;690344;28;955;-47
2022/06/29 01:34:52;;;;;;;3.90;2.50;;;;;;;15.18;97.42;100785.91;690704;28;924;-46
2022/06/29 01:35:13;;;;;;;3.58;2.40;;;;;;;15.16;99.49;100778.03;690218;28;915;-44
2022/06/29 01:35:33;;;;;;;3.88;2.35;;;;;;;15.14;100.00;100777.19;691473;28;1086;-46
2022/06/29 01:35:54;;;;;;;6.07;2.40;;;;;;;15.14;98.42;100782.44;690969;28;1546;-46
2022/06/29 01:36:16;;;;;;;5.47;2.60;;;;;;;15.13;97.79;100776.31;690544;28;893;-45
2022/06/29 01:36:36;;;;;;;4.72;2.55;;;;;;;15.14;97.71;100783.31;690355;28;1586;-46
2022/06/29 01:36:58;;;;;;;4.28;2.30;;;;;;;15.13;97.02;100785.97;691189;28;1004;-44
2022/06/29 01:37:19;;;;;;;5.53;2.40;;;;;;;15.13;97.99;100780.72;685708;28;4422;-47
2022/06/29 01:37:40;;;;;;;3.83;2.50;;;;;;;15.12;98.54;100779.84;685824;28;1024;-46
2022/06/29 01:38:01;;;;;;;4.82;2.40;;;;;;;15.11;98.71;100772.00;686035;28;1185;-46
2022/06/29 01:38:21;;;;;;;4.97;2.20;;;;;;;15.09;98.90;100784.31;686720;28;1234;-46
2022/06/29 01:38:43;;;;;;;3.87;2.30;;;;;;;15.09;98.29;100782.56;687700;28;962;-45
2022/06/29 01:39:03;;;;;;;4.30;2.50;;;;;;;15.09;98.42;100779.03;688437;28;5071;-45
2022/06/29 01:39:24;;;;;;;4.40;2.30;;;;;;;15.07;98.64;100780.84;690241;28;983;-47
2022/06/29 01:39:44;;;;;;;5.50;2.40;;;;;;;15.06;98.58;100779.13;690130;28;1306;-45
2022/06/29 01:40:06;;;;;;;5.10;2.30;;;;;;;15.06;97.90;100784.38;689311;28;4368;-45
2022/06/29 01:40:26;;;;;;;4.13;2.20;;;;;;;15.05;97.65;100774.75;690593;28;967;-46
2022/06/29 01:40:47;;;;;;;4.53;2.20;;;;;;;15.07;98.01;100780.84;690656;28;1129;-46
2022/06/29 01:41:10;;;;;;;3.90;2.20;;;;;;;15.07;97.27;100772.97;690301;28;1213;-46
2022/06/29 01:41:30;;;;;;;3.92;2.20;;;;;;;15.07;97.37;100775.59;690718;28;1357;-45